createdAt,value
2018-09-27T00:02:42.243Z,102224.29
2018-09-27T00:07:44.398Z,102230.52
2018-09-27T00:12:46.551Z,102233.12
2018-09-27T00:17:48.955Z,102230.23
2018-09-27T00:22:51.102Z,102225.48
2018-09-27T00:27:53.214Z,102232.48
2018-09-27T00:32:55.377Z,102229.42
2018-09-27T00:37:57.702Z,102224.33
2018-09-27T00:42:59.820Z,102231.75
2018-09-27T00:48:01.999Z,102223.24
2018-09-27T00:53:04.136Z,102224.66
2018-09-27T00:58:06.544Z,102224.33
2018-09-27T01:03:08.736Z,102225.71
2018-09-27T01:08:10.906Z,102223.45
2018-09-27T01:13:13.048Z,102221.84
2018-09-27T01:18:15.191Z,102224.05
2018-09-27T01:23:17.315Z,102219.58
2018-09-27T01:28:19.453Z,102226.78
2018-09-27T01:33:21.546Z,102229.47
2018-09-27T01:38:23.728Z,102228.14
2018-09-27T01:43:25.864Z,102228.14
2018-09-27T01:48:28.033Z,102229.75
2018-09-27T01:53:30.162Z,102223.91
2018-09-27T01:58:32.302Z,102227.32
2018-09-27T02:03:34.511Z,102222.91
2018-09-27T02:08:37.259Z,102230.48
2018-09-27T02:13:39.408Z,102226.93
2018-09-27T02:18:41.538Z,102233.01
2018-09-27T02:23:43.676Z,102231.28
2018-09-27T02:28:46.284Z,102230.34
2018-09-27T02:33:48.370Z,102230.34
2018-09-27T02:38:50.550Z,102217.69
2018-09-27T02:43:52.714Z,102210.66
2018-09-27T02:48:54.842Z,102210.17
2018-09-27T02:53:56.992Z,102208.98
2018-09-27T02:58:59.150Z,102205.96
2018-09-27T03:04:01.343Z,102210.80
2018-09-27T03:09:06.887Z,102211.20
2018-09-27T03:14:09.008Z,102211.88
2018-09-27T03:19:11.171Z,102208.05
2018-09-27T03:24:13.335Z,102211.93
2018-09-27T03:29:15.478Z,102186.69
2018-09-27T03:34:17.642Z,102191.09
2018-09-27T03:39:20.074Z,102189.03
2018-09-27T03:44:22.218Z,102186.69
2018-09-27T03:49:24.394Z,102192.99
2018-09-27T03:54:26.557Z,102193.64
2018-09-27T03:59:28.720Z,102189.97
2018-09-27T04:04:30.903Z,102192.20
2018-09-27T04:09:33.012Z,102189.51
2018-09-27T04:14:35.155Z,102193.81
2018-09-27T04:19:37.346Z,102200.16
2018-09-27T04:24:39.498Z,102208.19
2018-09-27T04:29:41.683Z,102208.19
2018-09-27T04:34:43.834Z,102200.90
2018-09-27T04:39:45.977Z,102202.70
2018-09-27T04:44:48.085Z,102205.65
2018-09-27T04:49:50.217Z,102198.47
2018-09-27T04:54:52.355Z,102214.06
2018-09-27T04:59:54.567Z,102217.63
2018-09-27T05:04:56.675Z,102215.43
2018-09-27T05:09:58.800Z,102203.38
2018-09-27T05:15:00.902Z,102208.05
2018-09-27T05:20:03.073Z,102204.31
2018-09-27T05:25:05.260Z,102199.73
2018-09-27T05:30:07.441Z,102186.89
2018-09-27T05:35:09.570Z,102191.92
2018-09-27T05:40:11.682Z,102187.17
2018-09-27T05:45:13.861Z,102194.31
2018-09-27T05:50:16.041Z,102206.84
2018-09-27T05:55:18.230Z,102209.10
2018-09-27T06:00:20.407Z,102206.45
2018-09-27T06:05:22.599Z,102211.31
2018-09-27T06:10:24.767Z,102203.67
2018-09-27T06:15:26.966Z,102211.64
2018-09-27T06:20:29.096Z,102203.48
2018-09-27T06:25:31.222Z,102203.39
2018-09-27T06:30:33.367Z,102199.09
2018-09-27T06:35:35.619Z,102199.20
2018-09-27T06:40:37.777Z,102208.64
2018-09-27T06:45:39.894Z,102206.10
2018-09-27T06:50:42.376Z,102202.82
2018-09-27T06:55:44.577Z,102207.23
2018-09-27T07:00:46.720Z,102207.42
2018-09-27T07:05:48.870Z,102203.45
2018-09-27T07:10:51.019Z,102206.70
2018-09-27T07:15:53.384Z,102203.66
2018-09-27T07:20:55.535Z,102197.88
2018-09-27T07:25:57.653Z,102194.19
2018-09-27T07:30:59.867Z,102198.38
2018-09-27T07:36:02.103Z,102188.88
2018-09-27T07:41:04.218Z,102188.05
2018-09-27T07:46:06.454Z,102180.29
2018-09-27T07:51:08.660Z,102184.87
2018-09-27T07:56:10.808Z,102186.67
2018-09-27T08:01:13.177Z,102194.19
2018-09-27T08:06:15.392Z,102199.64
2018-09-27T08:11:17.695Z,102209.59
2018-09-27T08:16:19.720Z,102214.92
2018-09-27T08:21:21.886Z,102207.59
2018-09-27T08:26:24.048Z,102207.63
2018-09-27T08:31:26.208Z,102209.91
2018-09-27T08:36:28.697Z,102213.13
2018-09-27T08:41:30.807Z,102214.19
2018-09-27T08:46:33.164Z,102207.11
2018-09-27T08:51:36.395Z,102200.00
2018-09-27T08:56:38.493Z,102199.73
2018-09-27T09:01:40.720Z,102196.84
2018-09-27T09:06:42.847Z,102189.84
2018-09-27T09:11:45.000Z,102143.77
2018-09-27T09:16:47.150Z,102177.33
2018-09-27T09:21:49.282Z,102174.11
2018-09-27T09:26:51.434Z,102168.00
2018-09-27T09:31:53.649Z,102154.69
2018-09-27T09:36:55.957Z,102153.53
2018-09-27T09:41:58.105Z,102148.02
2018-09-27T09:47:00.435Z,102142.98
2018-09-27T09:52:02.600Z,102137.16
2018-09-27T09:57:05.140Z,102128.19
2018-09-27T10:02:07.328Z,102128.75
2018-09-27T10:07:09.476Z,102128.95
2018-09-27T10:12:11.611Z,102121.09
2018-09-27T10:17:13.758Z,102104.33
2018-09-27T10:22:15.911Z,102101.58
2018-09-27T10:27:18.079Z,102091.70
2018-09-27T10:32:20.243Z,102091.52
2018-09-27T10:37:22.394Z,102071.81
2018-09-27T10:42:24.510Z,102060.30
2018-09-27T10:47:26.709Z,102047.42
2018-09-27T10:52:28.840Z,102059.52
2018-09-27T10:57:30.976Z,102056.12
2018-09-27T11:02:33.165Z,102047.77
2018-09-27T11:07:35.341Z,102037.52
2018-09-27T11:12:37.521Z,102033.23
2018-09-27T11:17:39.808Z,102021.70
2018-09-27T11:22:41.966Z,102010.84
2018-09-27T11:27:44.524Z,102021.48
2018-09-27T11:32:46.975Z,102012.11
2018-09-27T11:37:49.079Z,102008.78
2018-09-27T11:42:51.308Z,101998.83
2018-09-27T11:47:53.433Z,101989.89
2018-09-27T11:52:55.686Z,101990.77
2018-09-27T11:57:57.872Z,101982.11
2018-09-27T12:03:00.054Z,101985.43
2018-09-27T12:08:02.344Z,101967.25
2018-09-27T12:13:04.549Z,101968.48
2018-09-27T12:18:06.716Z,101960.90
2018-09-27T12:23:08.920Z,101959.69
2018-09-27T12:28:11.061Z,101958.16
2018-09-27T12:33:13.273Z,101948.84
2018-09-27T12:38:15.483Z,101942.95
2018-09-27T12:43:17.681Z,101947.98
2018-09-27T12:48:19.870Z,101933.56
2018-09-27T12:53:22.028Z,101942.18
2018-09-27T12:58:24.217Z,101937.52
2018-09-27T13:03:26.525Z,101923.16
2018-09-27T13:08:28.807Z,101922.77
2018-09-27T13:13:31.052Z,101918.00
2018-09-27T13:18:33.115Z,101917.97
2018-09-27T13:23:35.259Z,101902.08
2018-09-27T13:28:37.478Z,101892.91
2018-09-27T13:33:39.608Z,101886.89
2018-09-27T13:38:42.007Z,101881.35
2018-09-27T13:43:44.262Z,101880.67
2018-09-27T13:48:46.435Z,101874.26
2018-09-27T13:53:48.941Z,101858.09
2018-09-27T13:58:51.108Z,101865.05
2018-09-27T14:03:53.291Z,101851.34
2018-09-27T14:08:55.479Z,101856.05
2018-09-27T14:13:57.663Z,101853.70
2018-09-27T14:18:59.834Z,101837.02
2018-09-27T14:24:01.986Z,101837.62
2018-09-27T14:29:04.170Z,101831.88
2018-09-27T14:34:06.493Z,101816.80
2018-09-27T14:39:09.507Z,101827.03
2018-09-27T14:44:11.730Z,101813.09
2018-09-27T14:49:13.892Z,101802.77
2018-09-27T14:54:16.097Z,101787.59
2018-09-27T14:59:18.520Z,101778.50
2018-09-27T15:04:20.732Z,101769.73
2018-09-27T15:09:23.011Z,101769.23
2018-09-27T15:14:25.169Z,101762.95
2018-09-27T15:19:27.347Z,101755.52
2018-09-27T15:24:29.531Z,101760.39
2018-09-27T15:29:31.756Z,101750.34
2018-09-27T15:34:34.017Z,101745.81
2018-09-27T15:39:36.221Z,101744.33
2018-09-27T15:44:38.497Z,101741.69
2018-09-27T15:49:40.720Z,101736.83
2018-09-27T15:54:42.949Z,101739.39
2018-09-27T15:59:45.226Z,101725.97
2018-09-27T16:04:47.456Z,101713.70
2018-09-27T16:09:49.701Z,101719.97
2018-09-27T16:14:52.094Z,101715.17
2018-09-27T16:19:54.301Z,101704.37
2018-09-27T16:24:56.499Z,101701.82
2018-09-27T16:29:58.713Z,101699.70
2018-09-27T16:35:00.899Z,101697.41
2018-09-27T16:40:03.411Z,101685.89
2018-09-27T16:45:05.725Z,101688.45
2018-09-27T16:50:07.887Z,101684.62
2018-09-27T16:55:10.083Z,101669.61
2018-09-27T17:00:12.317Z,101663.11
2018-09-27T17:05:14.478Z,101656.80
2018-09-27T17:10:16.715Z,101656.95
2018-09-27T17:15:18.889Z,101649.36
2018-09-27T17:20:21.111Z,101643.23
2018-09-27T17:25:23.319Z,101639.06
2018-09-27T17:30:26.125Z,101629.20
2018-09-27T17:35:28.343Z,101632.41
2018-09-27T17:40:30.554Z,101619.95
2018-09-27T17:45:33.141Z,101618.65
2018-09-27T17:50:35.724Z,101614.45
2018-09-27T17:55:37.977Z,101606.39
2018-09-27T18:00:40.201Z,101604.99
2018-09-27T18:05:42.525Z,101603.31
2018-09-27T18:10:44.705Z,101605.39
2018-09-27T18:15:46.883Z,101596.59
2018-09-27T18:20:49.505Z,101605.37
2018-09-27T18:25:51.746Z,101585.19
2018-09-27T18:30:54.016Z,101578.55
2018-09-27T18:35:56.389Z,101580.98
2018-09-27T18:40:58.789Z,101581.03
2018-09-27T18:46:01.114Z,101590.46
2018-09-27T18:51:03.441Z,101582.69
2018-09-27T18:56:06.250Z,101576.75
2018-09-27T19:01:08.702Z,101557.00
2018-09-27T19:06:11.312Z,101551.64
2018-09-27T19:11:13.874Z,101541.29
2018-09-27T19:16:16.387Z,101547.26
2018-09-27T19:21:18.989Z,101541.26
2018-09-27T19:26:22.853Z,101530.99
2018-09-27T19:31:25.276Z,101528.14
2018-09-27T19:36:27.715Z,101523.54
2018-09-27T19:41:30.186Z,101523.14
2018-09-27T19:46:32.570Z,101517.86
2018-09-27T19:51:35.002Z,101508.39
2018-09-27T19:56:37.397Z,101520.36
2018-09-27T20:01:39.929Z,101515.03
2018-09-27T20:06:42.377Z,101522.44
2018-09-27T20:11:44.709Z,101515.60
2018-09-27T20:16:47.089Z,101516.81
2018-09-27T20:21:49.314Z,101504.77
2018-09-27T20:26:51.560Z,101505.89
2018-09-27T20:31:54.124Z,101499.05
2018-09-27T20:36:56.421Z,101491.89
2018-09-27T20:41:58.733Z,101492.44
2018-09-27T20:47:01.000Z,101499.89
2018-09-27T20:52:03.304Z,101491.72
2018-09-27T20:57:05.832Z,101499.27
2018-09-27T21:02:08.102Z,101499.65
2018-09-27T21:07:10.414Z,101502.25
2018-09-27T21:12:12.681Z,101501.16
2018-09-27T21:17:14.894Z,101502.32
2018-09-27T21:22:17.142Z,101509.29
2018-09-27T21:27:19.332Z,101524.92
2018-09-27T21:32:21.511Z,101528.45
2018-09-27T21:37:23.688Z,101533.25
2018-09-27T21:42:25.840Z,101539.16
2018-09-27T21:47:27.986Z,101536.67
2018-09-27T21:52:30.139Z,101547.00
2018-09-27T21:57:32.324Z,101538.11
2018-09-27T22:02:34.542Z,101543.13
2018-09-27T22:07:36.718Z,101544.55
2018-09-27T22:12:39.011Z,101547.89
2018-09-27T22:17:41.158Z,101546.59
2018-09-27T22:22:43.527Z,101550.23
2018-09-27T22:27:45.695Z,101551.80
2018-09-27T22:32:48.221Z,101544.16
2018-09-27T22:37:50.352Z,101546.64
2018-09-27T22:42:52.504Z,101552.64
2018-09-27T22:47:54.666Z,101550.63
2018-09-27T22:52:56.828Z,101549.98
2018-09-27T22:57:58.970Z,101545.05
2018-09-27T23:03:01.467Z,101552.51
2018-09-27T23:08:03.617Z,101553.48
2018-09-27T23:13:06.581Z,101562.62
2018-09-27T23:18:10.078Z,101569.52
2018-09-27T23:23:12.235Z,101574.42
2018-09-27T23:28:14.388Z,101580.54
2018-09-27T23:33:16.558Z,101583.29
2018-09-27T23:38:18.727Z,101581.70
2018-09-27T23:43:20.851Z,101581.55
2018-09-27T23:48:22.986Z,101585.13
2018-09-27T23:53:25.179Z,101591.64
2018-09-27T23:58:27.295Z,101608.05
